Time;durP1;ratioP1;P1;durP2;ratioP2;P2;SDS_P1;SDS_P2;PMS_P1;PMS_P2;Temp;Humidity;BMP_temperature;BMP_pressure;BME280_temperature;BME280_humidity;BME280_pressure;Samples;Min_cycle;Max_cycle;Signal;HPM_P1;HPM_P2
2023/02/16 00:01:47;;;;;;;28.95;13.30;;;-0.70;99.90;;;;;;5084447;28;20059;-75
2023/02/16 00:04:26;;;;;;;29.92;13.70;;;-0.70;99.90;;;;;;5083048;28;20423;-76
2023/02/16 00:06:56;;;;;;;31.70;13.80;;;-0.70;99.90;;;;;;5088711;28;20028;-75
2023/02/16 00:09:23;;;;;;;32.92;14.38;;;-0.80;99.90;;;;;;5084962;28;20202;-76
2023/02/16 00:14:37;;;;;;;29.42;13.30;;;-0.80;99.90;;;;;;5082809;28;20085;-76
2023/02/16 00:17:04;;;;;;;28.65;13.80;;;-0.80;99.90;;;;;;5081058;28;20040;-76
2023/02/16 00:19:41;;;;;;;31.92;14.98;;;-0.80;99.90;;;;;;5092945;28;20028;-75
2023/02/16 00:22:07;;;;;;;26.90;13.27;;;-0.80;99.90;;;;;;5087936;28;20055;-76
2023/02/16 00:24:33;;;;;;;31.15;13.77;;;-0.70;99.90;;;;;;5088978;28;20028;-76
2023/02/16 00:27:00;;;;;;;26.50;13.52;;;-0.70;99.90;;;;;;5089330;28;20024;-76
2023/02/16 00:29:28;;;;;;;25.20;12.50;;;-0.60;99.90;;;;;;5090207;28;20028;-76
2023/02/16 00:31:55;;;;;;;27.50;13.20;;;-0.60;99.90;;;;;;5092944;28;20414;-76
2023/02/16 00:34:29;;;;;;;28.13;13.30;;;-0.60;99.90;;;;;;5086447;28;20032;-76
2023/02/16 00:36:56;;;;;;;32.90;14.35;;;-0.60;99.90;;;;;;5090998;28;20060;-74
2023/02/16 00:39:26;;;;;;;33.80;13.60;;;-0.60;99.90;;;;;;5075983;28;20138;-76
2023/02/16 00:41:58;;;;;;;25.42;13.05;;;-0.70;99.90;;;;;;5087693;28;20035;-76
2023/02/16 00:44:38;;;;;;;27.38;12.85;;;-0.70;99.90;;;;;;5089984;28;20032;-75
2023/02/16 00:47:33;;;;;;;30.75;14.05;;;-0.60;99.90;;;;;;5077894;28;20024;-75
2023/02/16 00:49:59;;;;;;;30.15;14.35;;;-0.70;99.90;;;;;;5080531;28;20016;-76
2023/02/16 00:52:35;;;;;;;34.35;13.88;;;-0.70;99.90;;;;;;5080233;28;20814;-76
2023/02/16 00:55:07;;;;;;;29.05;14.52;;;-0.60;99.90;;;;;;5082643;28;20120;-76
2023/02/16 00:57:37;;;;;;;31.38;14.77;;;-0.60;99.90;;;;;;5093144;28;20031;-77
2023/02/16 01:00:21;;;;;;;30.02;13.68;;;-0.60;99.90;;;;;;5085612;28;20439;-76
2023/02/16 01:02:52;;;;;;;32.80;14.45;;;-0.60;99.90;;;;;;5057233;28;20400;-76
2023/02/16 01:05:19;;;;;;;34.35;14.75;;;-0.70;99.90;;;;;;5079411;28;20047;-76
2023/02/16 01:13:18;;;;;;;30.88;14.32;;;-0.80;99.90;;;;;;5080477;28;20032;-77
2023/02/16 01:15:44;;;;;;;29.30;15.00;;;-0.80;99.90;;;;;;5078377;28;20042;-76
2023/02/16 01:18:15;;;;;;;29.63;14.13;;;-0.80;99.90;;;;;;5084743;28;20025;-77
2023/02/16 01:20:42;;;;;;;29.80;13.77;;;-0.80;99.90;;;;;;5088295;28;20040;-76
2023/02/16 01:23:08;;;;;;;31.10;13.82;;;-0.90;99.90;;;;;;5079227;28;20555;-76
2023/02/16 01:25:35;;;;;;;31.45;14.95;;;-0.90;99.90;;;;;;5084028;28;20484;-76
2023/02/16 01:28:01;;;;;;;28.98;14.07;;;-0.90;99.90;;;;;;5074226;28;20128;-76
2023/02/16 01:30:27;;;;;;;34.75;14.90;;;-0.90;99.90;;;;;;5079727;28;20547;-75
2023/02/16 01:32:54;;;;;;;34.33;15.07;;;-0.90;99.90;;;;;;5085506;28;20063;-76
2023/02/16 01:35:22;;;;;;;30.92;13.90;;;-0.90;99.90;;;;;;5063062;28;20067;-76
2023/02/16 01:37:49;;;;;;;32.78;13.98;;;-0.90;99.90;;;;;;5065525;28;20032;-76
2023/02/16 01:40:37;;;;;;;32.08;14.20;;;-0.90;99.90;;;;;;5077860;28;20032;-76
2023/02/16 01:43:06;;;;;;;28.90;13.02;;;-0.90;99.90;;;;;;5081420;28;20016;-76
2023/02/16 01:45:34;;;;;;;31.77;13.25;;;-0.90;99.90;;;;;;5083034;28;20020;-76
2023/02/16 01:48:07;;;;;;;28.85;13.75;;;-1.00;99.90;;;;;;5079557;28;20024;-76
2023/02/16 01:50:47;;;;;;;31.40;13.20;;;-1.00;99.90;;;;;;5081028;28;20028;-76
2023/02/16 01:53:33;;;;;;;29.65;12.82;;;-1.10;99.90;;;;;;5082303;28;20070;-77
2023/02/16 01:56:09;;;;;;;34.08;14.75;;;-1.10;99.90;;;;;;5084761;28;20040;-75
2023/02/16 01:58:51;;;;;;;29.90;12.63;;;-1.10;99.90;;;;;;5096658;28;21161;-76
2023/02/16 02:01:41;;;;;;;32.00;13.48;;;-1.20;99.90;;;;;;5077588;28;20040;-76
2023/02/16 02:07:41;;;;;;;31.33;13.10;;;-1.20;99.90;;;;;;5059236;28;20043;-76
2023/02/16 02:10:21;;;;;;;28.02;13.25;;;-1.10;99.90;;;;;;5081003;28;20028;-75
2023/02/16 02:13:04;;;;;;;27.88;12.55;;;-1.10;99.90;;;;;;5063528;28;20027;-76
2023/02/16 02:15:31;;;;;;;38.60;14.50;;;-1.10;99.90;;;;;;5074777;28;20038;-75
2023/02/16 02:17:58;;;;;;;28.75;13.10;;;-1.10;99.90;;;;;;5086646;28;20040;-76
2023/02/16 02:23:42;;;;;;;32.15;13.90;;;-1.10;99.90;;;;;;5079295;28;20024;-76
2023/02/16 02:26:34;;;;;;;33.28;13.95;;;-1.20;99.90;;;;;;5072149;28;20109;-76
2023/02/16 02:29:12;;;;;;;31.60;14.18;;;-1.10;99.90;;;;;;5084929;28;20028;-76
2023/02/16 02:31:41;;;;;;;38.03;14.68;;;-1.20;99.90;;;;;;5075364;28;20032;-76
2023/02/16 02:34:55;;;;;;;35.92;14.10;;;-1.10;99.90;;;;;;5064387;28;20031;-76
2023/02/16 02:37:50;;;;;;;34.85;13.68;;;-1.20;99.90;;;;;;5020971;28;20054;-77
2023/02/16 02:40:50;;;;;;;31.33;12.77;;;-1.20;99.90;;;;;;5083310;28;20039;-76
2023/02/16 02:43:44;;;;;;;29.42;13.43;;;-1.20;99.90;;;;;;5082387;28;20114;-76
2023/02/16 02:46:30;;;;;;;33.30;14.13;;;-1.20;99.90;;;;;;5079839;28;20028;-76
2023/02/16 02:48:56;;;;;;;34.35;14.80;;;-1.20;99.90;;;;;;5077844;28;20021;-75
2023/02/16 02:51:28;;;;;;;33.88;13.75;;;-1.20;99.90;;;;;;5063266;28;20131;-76
2023/02/16 03:02:24;;;;;;;31.40;13.65;;;-1.20;99.90;;;;;;5064063;28;20036;-77
2023/02/16 03:04:53;;;;;;;30.90;13.40;;;-1.20;99.90;;;;;;5068495;28;20717;-76
2023/02/16 03:07:45;;;;;;;34.95;14.35;;;-1.20;99.90;;;;;;5079153;28;20012;-76
2023/02/16 03:12:54;;;;;;;33.13;14.70;;;-1.20;99.90;;;;;;5079167;28;20032;-76
2023/02/16 03:15:23;;;;;;;36.05;15.60;;;-1.30;99.90;;;;;;5079961;28;20055;-76
2023/02/16 03:31:40;;;;;;;31.73;13.00;;;-1.40;99.90;;;;;;5079162;28;20126;-76
2023/02/16 03:34:06;;;;;;;36.10;15.15;;;-1.40;99.90;;;;;;5077909;28;20036;-76
2023/02/16 03:36:36;;;;;;;35.55;14.30;;;-1.40;99.90;;;;;;5078769;28;20035;-76
2023/02/16 03:39:03;;;;;;;34.38;13.80;;;-1.40;99.90;;;;;;5085151;28;20119;-76
2023/02/16 03:41:37;;;;;;;34.42;14.93;;;-1.40;99.90;;;;;;5086506;28;20047;-75
2023/02/16 03:44:02;;;;;;;36.08;14.68;;;-1.40;99.90;;;;;;5078104;28;20037;-76
2023/02/16 03:46:28;;;;;;;29.95;13.73;;;-1.50;99.90;;;;;;5079584;28;20072;-76
2023/02/16 03:48:54;;;;;;;35.92;13.73;;;-1.50;99.90;;;;;;5082637;28;20103;-76
2023/02/16 03:51:20;;;;;;;33.92;13.68;;;-1.50;99.90;;;;;;5088221;28;20146;-76
2023/02/16 03:53:46;;;;;;;35.13;14.50;;;-1.50;99.90;;;;;;5060947;28;20043;-76
2023/02/16 03:56:11;;;;;;;38.15;15.20;;;-1.50;99.90;;;;;;5077737;28;20094;-76
2023/02/16 03:58:37;;;;;;;30.25;13.82;;;-1.50;99.90;;;;;;5076251;28;20032;-76
2023/02/16 04:01:03;;;;;;;34.58;15.10;;;-1.50;99.90;;;;;;5083582;28;20535;-76
2023/02/16 04:03:29;;;;;;;33.85;14.48;;;-1.50;99.90;;;;;;5074773;28;20029;-76
2023/02/16 04:05:55;;;;;;;34.97;13.75;;;-1.50;99.90;;;;;;5084563;28;20123;-76
2023/02/16 04:08:21;;;;;;;33.90;14.55;;;-1.50;99.90;;;;;;5040718;28;20514;-76
2023/02/16 04:10:46;;;;;;;32.13;13.85;;;-1.60;99.90;;;;;;5078009;28;20032;-76
2023/02/16 04:13:12;;;;;;;32.72;14.65;;;-1.60;99.90;;;;;;5080462;28;20103;-76
2023/02/16 04:15:40;;;;;;;32.00;14.32;;;-1.60;99.90;;;;;;5076590;28;20488;-76
2023/02/16 04:18:06;;;;;;;32.30;14.38;;;-1.60;99.90;;;;;;5080968;28;20085;-76
2023/02/16 04:20:36;;;;;;;34.22;14.18;;;-1.60;99.90;;;;;;5086081;28;20112;-76
2023/02/16 04:23:02;;;;;;;33.65;14.00;;;-1.60;99.90;;;;;;5082759;28;20101;-76
2023/02/16 04:25:28;;;;;;;33.80;15.05;;;-1.70;99.90;;;;;;5078252;28;20073;-76
2023/02/16 04:27:54;;;;;;;33.35;15.50;;;-1.70;99.90;;;;;;5085245;28;20038;-76
2023/02/16 04:30:26;;;;;;;33.80;14.27;;;-1.80;99.90;;;;;;5065942;28;20059;-76
2023/02/16 04:32:52;;;;;;;30.85;13.68;;;-1.70;99.90;;;;;;5080722;28;20029;-76
2023/02/16 04:35:19;;;;;;;35.08;14.32;;;-1.60;99.90;;;;;;5078051;28;20555;-76
2023/02/16 04:37:45;;;;;;;30.10;13.85;;;-1.60;99.90;;;;;;5062935;28;20020;-76
2023/02/16 04:40:12;;;;;;;35.35;15.02;;;-1.60;99.90;;;;;;5087877;28;20051;-76
2023/02/16 04:42:39;;;;;;;31.70;14.57;;;-1.60;99.90;;;;;;5089743;28;20082;-77
2023/02/16 04:45:05;;;;;;;34.42;15.32;;;-1.60;99.90;;;;;;5082133;28;20028;-76
2023/02/16 04:47:31;;;;;;;35.78;15.32;;;-1.60;99.90;;;;;;5088204;28;20404;-76
2023/02/16 04:49:57;;;;;;;38.00;16.13;;;-1.50;99.90;;;;;;5083259;28;20024;-76
2023/02/16 04:52:23;;;;;;;37.50;15.10;;;-1.50;99.90;;;;;;5087009;28;20749;-76
2023/02/16 04:54:48;;;;;;;37.75;15.00;;;-1.50;99.90;;;;;;5080885;28;20036;-76
2023/02/16 04:57:14;;;;;;;32.38;14.90;;;-1.60;99.90;;;;;;5091070;28;20016;-77
2023/02/16 04:59:40;;;;;;;33.03;14.35;;;-1.60;99.90;;;;;;5068314;28;20040;-76
2023/02/16 05:02:06;;;;;;;35.65;15.60;;;-1.50;99.90;;;;;;5090172;28;20065;-77
2023/02/16 05:04:32;;;;;;;32.63;14.38;;;-1.50;99.90;;;;;;5087360;28;20116;-76
2023/02/16 05:06:58;;;;;;;32.20;13.20;;;-1.60;99.90;;;;;;5077966;28;20461;-77
2023/02/16 05:09:24;;;;;;;32.15;13.77;;;-1.60;99.90;;;;;;5064539;28;20178;-77
2023/02/16 05:14:41;;;;;;;33.93;13.60;;;-1.70;99.90;;;;;;5086062;28;20031;-76
2023/02/16 05:17:15;;;;;;;35.13;15.02;;;-1.70;99.90;;;;;;5085748;28;20276;-76
2023/02/16 05:19:44;;;;;;;31.70;14.68;;;-1.70;99.90;;;;;;5080723;28;20028;-77
2023/02/16 05:22:12;;;;;;;32.65;14.20;;;-1.70;99.90;;;;;;5081743;28;20511;-77
2023/02/16 05:24:38;;;;;;;32.97;14.13;;;-1.80;99.90;;;;;;5080698;28;20122;-75
2023/02/16 05:27:07;;;;;;;36.03;14.88;;;-1.70;99.90;;;;;;5087502;28;20028;-77
2023/02/16 05:29:33;;;;;;;34.20;14.95;;;-1.70;99.90;;;;;;5081989;28;20044;-75
2023/02/16 05:31:59;;;;;;;32.40;14.13;;;-1.70;99.90;;;;;;5083498;28;20434;-76
2023/02/16 05:34:25;;;;;;;36.28;14.77;;;-1.70;99.90;;;;;;5076543;28;20752;-76
2023/02/16 05:36:51;;;;;;;41.72;15.75;;;-1.80;99.90;;;;;;5079625;28;20032;-76
2023/02/16 05:39:17;;;;;;;34.55;15.63;;;-1.80;99.90;;;;;;5083144;28;20032;-77
2023/02/16 05:41:43;;;;;;;33.13;15.00;;;-1.80;99.90;;;;;;5082830;28;20044;-76
2023/02/16 05:44:10;;;;;;;35.50;15.68;;;-1.80;99.90;;;;;;5083329;28;20471;-76
2023/02/16 05:46:37;;;;;;;40.38;15.32;;;-1.80;99.90;;;;;;5063493;28;20032;-76
2023/02/16 05:49:04;;;;;;;35.78;14.70;;;-1.80;99.90;;;;;;5067538;28;20028;-77
2023/02/16 05:51:30;;;;;;;34.15;14.02;;;-1.70;99.90;;;;;;5079041;28;20036;-76
2023/02/16 05:53:56;;;;;;;39.40;14.48;;;-1.80;99.90;;;;;;5078639;28;20035;-76
2023/02/16 05:56:22;;;;;;;37.35;15.43;;;-1.70;99.90;;;;;;5085021;28;20028;-76
2023/02/16 05:58:48;;;;;;;35.58;15.63;;;-1.80;99.90;;;;;;5081756;28;20090;-76
2023/02/16 06:01:14;;;;;;;39.08;15.68;;;-1.80;99.90;;;;;;5078970;28;20067;-76
2023/02/16 06:03:40;;;;;;;34.75;15.27;;;-1.90;99.90;;;;;;5065677;28;20024;-76
2023/02/16 06:06:06;;;;;;;31.30;14.85;;;-1.90;99.90;;;;;;5085172;28;20039;-75
2023/02/16 06:08:32;;;;;;;31.90;14.40;;;-1.90;99.90;;;;;;5077451;28;20036;-76
2023/02/16 06:10:59;;;;;;;36.80;15.50;;;-1.90;99.90;;;;;;5079226;28;20115;-77
2023/02/16 06:13:24;;;;;;;44.45;17.67;;;-1.90;99.90;;;;;;5080392;28;20044;-77
2023/02/16 06:15:52;;;;;;;37.20;15.75;;;-1.90;99.90;;;;;;5081559;28;20043;-77
2023/02/16 06:18:18;;;;;;;37.60;15.90;;;-1.90;99.90;;;;;;5082723;28;20020;-76
2023/02/16 06:20:45;;;;;;;37.45;15.32;;;-1.90;99.90;;;;;;5081384;28;20039;-77
2023/02/16 06:23:12;;;;;;;41.13;16.42;;;-1.90;99.90;;;;;;5080174;28;20125;-77
2023/02/16 06:25:41;;;;;;;41.40;16.60;;;-1.90;99.90;;;;;;5078525;28;20024;-76
2023/02/16 06:28:07;;;;;;;37.20;15.93;;;-1.90;99.90;;;;;;5077432;28;20024;-77
2023/02/16 06:30:34;;;;;;;41.28;17.65;;;-1.90;99.90;;;;;;5079565;28;20051;-77
2023/02/16 06:33:00;;;;;;;37.83;15.65;;;-1.90;99.90;;;;;;5078753;28;20032;-76
2023/02/16 06:35:26;;;;;;;38.85;15.60;;;-1.80;99.90;;;;;;5081094;28;20476;-77
2023/02/16 06:37:52;;;;;;;39.60;16.70;;;-1.80;99.90;;;;;;5065996;28;20056;-77
2023/02/16 06:40:18;;;;;;;39.55;16.38;;;-1.80;99.90;;;;;;5082154;28;20029;-77
2023/02/16 06:42:44;;;;;;;37.40;16.33;;;-1.80;99.90;;;;;;5057543;28;20025;-77
2023/02/16 06:45:10;;;;;;;39.97;16.52;;;-1.80;99.90;;;;;;5064326;28;20038;-77
2023/02/16 06:47:36;;;;;;;40.75;16.52;;;-1.80;99.90;;;;;;5079103;28;20028;-77
2023/02/16 06:50:04;;;;;;;41.15;16.88;;;-1.70;99.90;;;;;;5077319;28;20035;-77
2023/02/16 06:52:29;;;;;;;32.10;15.35;;;-1.80;99.90;;;;;;5077854;28;20028;-77
2023/02/16 06:54:55;;;;;;;35.47;15.45;;;-1.80;99.90;;;;;;5045031;28;20036;-76
2023/02/16 06:57:21;;;;;;;39.45;16.02;;;-1.80;99.90;;;;;;5046716;28;20052;-77
2023/02/16 06:59:46;;;;;;;36.33;15.63;;;-1.80;99.90;;;;;;5081015;28;20236;-77
2023/02/16 07:02:12;;;;;;;45.08;18.00;;;-1.70;99.90;;;;;;5076882;28;20498;-77
2023/02/16 07:04:38;;;;;;;35.40;15.45;;;-1.70;99.90;;;;;;5085440;28;20032;-77
2023/02/16 07:07:04;;;;;;;38.90;16.85;;;-1.80;99.90;;;;;;5064986;28;20341;-77
2023/02/16 07:09:29;;;;;;;36.88;15.70;;;-1.80;99.90;;;;;;5081994;28;20028;-77
2023/02/16 07:11:55;;;;;;;38.42;15.90;;;-1.80;99.90;;;;;;5080083;28;20031;-77
2023/02/16 07:14:21;;;;;;;35.85;15.40;;;-1.70;99.90;;;;;;5077986;28;20395;-77
2023/02/16 07:16:47;;;;;;;37.05;15.68;;;-1.70;99.90;;;;;;5073365;28;20032;-76
2023/02/16 07:19:13;;;;;;;36.55;15.07;;;-1.70;99.90;;;;;;5078427;28;20024;-77
2023/02/16 07:21:39;;;;;;;38.03;15.90;;;-1.60;99.90;;;;;;5073806;28;20447;-77
2023/02/16 07:24:05;;;;;;;32.10;15.10;;;-1.60;99.90;;;;;;5077180;28;20090;-77
2023/02/16 07:26:31;;;;;;;35.63;15.32;;;-1.80;99.90;;;;;;5077514;28;20043;-77
2023/02/16 07:28:56;;;;;;;37.03;15.10;;;-1.70;99.90;;;;;;5041645;28;20059;-76
2023/02/16 07:31:25;;;;;;;38.75;16.13;;;-1.70;99.90;;;;;;5080752;28;20043;-76
2023/02/16 07:33:51;;;;;;;41.05;16.45;;;-1.60;99.90;;;;;;5075973;28;20118;-76
2023/02/16 07:36:16;;;;;;;35.92;15.82;;;-1.70;99.90;;;;;;5075436;28;20032;-77
2023/02/16 07:38:42;;;;;;;35.58;15.65;;;-1.60;99.90;;;;;;5077311;28;20047;-77
2023/02/16 07:41:08;;;;;;;39.33;15.43;;;-1.50;99.90;;;;;;5079627;28;20032;-76
2023/02/16 07:43:34;;;;;;;34.20;15.30;;;-1.50;99.90;;;;;;5082553;28;20107;-77
2023/02/16 07:46:00;;;;;;;32.78;14.73;;;-1.50;99.90;;;;;;5059781;28;20032;-77
2023/02/16 07:48:26;;;;;;;32.47;14.95;;;-1.40;99.90;;;;;;5076360;28;20084;-76
2023/02/16 07:50:52;;;;;;;34.42;14.88;;;-1.40;99.90;;;;;;5080684;28;20483;-77
2023/02/16 07:53:18;;;;;;;34.50;15.52;;;-1.40;99.90;;;;;;5082670;28;20401;-77
2023/02/16 07:55:45;;;;;;;32.10;13.93;;;-1.40;99.90;;;;;;5080218;28;20070;-77
2023/02/16 07:58:25;;;;;;;29.33;14.60;;;-1.20;99.90;;;;;;5085564;28;20369;-77
2023/02/16 08:00:55;;;;;;;27.90;14.07;;;-1.10;99.90;;;;;;5076889;28;20634;-77
2023/02/16 08:03:22;;;;;;;27.45;14.23;;;-1.00;99.90;;;;;;5083876;28;20032;-77
2023/02/16 08:05:48;;;;;;;33.38;14.52;;;-0.90;99.90;;;;;;5079525;28;20036;-77
2023/02/16 08:08:13;;;;;;;35.40;14.80;;;-0.70;99.90;;;;;;5084431;28;20032;-77
2023/02/16 08:10:39;;;;;;;32.85;15.20;;;-0.60;99.90;;;;;;5081080;28;20131;-77
2023/02/16 08:13:05;;;;;;;34.88;16.52;;;-0.40;99.90;;;;;;5079711;28;20124;-77
2023/02/16 08:15:31;;;;;;;32.00;15.38;;;-0.30;99.90;;;;;;5080457;28;20028;-77
2023/02/16 08:17:57;;;;;;;32.47;15.80;;;-0.20;99.90;;;;;;5081952;28;20591;-77
2023/02/16 08:20:23;;;;;;;31.50;15.55;;;0.00;99.90;;;;;;5070773;28;20111;-77
2023/02/16 08:22:49;;;;;;;32.63;15.25;;;0.00;99.90;;;;;;5088834;28;20111;-77
2023/02/16 08:25:15;;;;;;;32.42;15.65;;;0.00;99.90;;;;;;5085842;28;20245;-77
2023/02/16 08:27:41;;;;;;;33.42;14.88;;;0.10;99.90;;;;;;5067900;28;20050;-76
2023/02/16 08:30:11;;;;;;;33.63;15.25;;;0.20;99.90;;;;;;5090270;28;20024;-76
2023/02/16 08:32:39;;;;;;;34.60;16.23;;;0.10;99.90;;;;;;5080150;28;20060;-77
2023/02/16 08:35:06;;;;;;;32.83;16.80;;;0.10;99.90;;;;;;5083952;28;20139;-76
2023/02/16 08:37:33;;;;;;;33.35;16.15;;;0.10;99.90;;;;;;5079610;28;20020;-76
2023/02/16 08:39:59;;;;;;;32.75;16.65;;;0.20;99.90;;;;;;5085612;28;20523;-76
2023/02/16 08:42:25;;;;;;;30.45;15.15;;;0.30;99.90;;;;;;5081871;28;20764;-76
2023/02/16 08:44:51;;;;;;;34.08;15.63;;;0.40;99.90;;;;;;5086251;28;20063;-77
2023/02/16 08:47:19;;;;;;;31.08;15.05;;;0.40;99.90;;;;;;5080238;28;20515;-77
2023/02/16 08:49:45;;;;;;;32.78;15.55;;;0.40;99.90;;;;;;5088561;28;20039;-76
2023/02/16 08:52:11;;;;;;;29.88;14.07;;;0.30;99.90;;;;;;5080115;28;20037;-76
2023/02/16 08:54:38;;;;;;;33.67;15.75;;;0.40;99.90;;;;;;5085251;28;20050;-76
2023/02/16 08:57:04;;;;;;;30.42;14.80;;;0.40;99.90;;;;;;5087174;28;20399;-76
2023/02/16 08:59:32;;;;;;;30.75;15.43;;;0.50;99.90;;;;;;5087388;28;20456;-76
2023/02/16 09:01:58;;;;;;;34.65;16.25;;;0.50;99.90;;;;;;5082715;28;20127;-76
2023/02/16 09:04:26;;;;;;;35.95;16.00;;;0.60;99.90;;;;;;5084609;28;20032;-76
2023/02/16 09:06:52;;;;;;;30.13;15.52;;;0.70;99.90;;;;;;5083687;28;20027;-76
2023/02/16 09:09:19;;;;;;;27.23;14.10;;;0.70;99.90;;;;;;5084069;28;20074;-76
2023/02/16 09:11:45;;;;;;;28.38;15.07;;;0.80;99.90;;;;;;5081593;28;20034;-76
2023/02/16 09:14:11;;;;;;;31.23;15.75;;;0.80;99.90;;;;;;5082152;28;20021;-76
2023/02/16 09:16:38;;;;;;;32.10;16.27;;;0.80;99.90;;;;;;5080953;28;20038;-76
2023/02/16 09:19:07;;;;;;;29.83;16.40;;;0.90;99.90;;;;;;5080917;28;20028;-76
2023/02/16 09:21:33;;;;;;;32.97;16.08;;;0.90;99.90;;;;;;5088133;28;20083;-76
2023/02/16 09:24:02;;;;;;;33.58;15.77;;;1.00;99.90;;;;;;5084109;28;20027;-76
2023/02/16 09:26:31;;;;;;;38.30;18.48;;;1.00;99.90;;;;;;5062530;28;20060;-76
2023/02/16 09:28:57;;;;;;;31.08;15.05;;;1.10;99.90;;;;;;5088627;28;20056;-76
2023/02/16 09:31:27;;;;;;;31.95;16.45;;;1.20;99.90;;;;;;5080732;28;20040;-76
2023/02/16 09:34:16;;;;;;;33.25;16.98;;;1.30;99.90;;;;;;5082285;28;20044;-76
2023/02/16 09:36:43;;;;;;;33.90;15.52;;;1.40;99.90;;;;;;5076771;28;20032;-76
2023/02/16 09:39:09;;;;;;;30.38;15.57;;;1.50;99.90;;;;;;5086094;28;20032;-76
2023/02/16 09:41:59;;;;;;;32.33;15.65;;;1.60;99.90;;;;;;5084666;28;20467;-76
2023/02/16 09:44:39;;;;;;;28.38;15.02;;;1.60;99.90;;;;;;5083042;28;20480;-76
2023/02/16 09:47:30;;;;;;;30.40;15.52;;;1.70;99.90;;;;;;5073958;28;20030;-76
2023/02/16 09:49:59;;;;;;;29.17;15.60;;;1.80;99.90;;;;;;5077852;28;20123;-76
2023/02/16 09:52:42;;;;;;;32.50;15.65;;;1.90;99.90;;;;;;5078579;28;20408;-76
2023/02/16 09:55:13;;;;;;;32.97;16.27;;;1.90;99.90;;;;;;5082381;28;20038;-76
2023/02/16 09:58:13;;;;;;;30.23;16.30;;;1.90;99.90;;;;;;5083960;28;20038;-76
2023/02/16 10:00:51;;;;;;;33.65;16.15;;;2.00;99.90;;;;;;5081471;28;20028;-76
2023/02/16 10:03:25;;;;;;;36.35;17.45;;;2.00;99.90;;;;;;5077813;28;20074;-76
2023/02/16 10:06:24;;;;;;;34.30;16.48;;;2.00;99.90;;;;;;5079487;28;20084;-76
2023/02/16 10:09:08;;;;;;;35.58;16.80;;;2.00;99.90;;;;;;5082337;28;20115;-76
2023/02/16 10:11:45;;;;;;;33.15;16.02;;;2.10;99.90;;;;;;5079476;28;20097;-76
2023/02/16 10:14:22;;;;;;;35.90;17.35;;;2.30;99.90;;;;;;5081042;28;20384;-76
2023/02/16 10:17:06;;;;;;;31.55;16.45;;;2.40;99.90;;;;;;5090169;28;20056;-76
2023/02/16 10:19:51;;;;;;;32.50;17.08;;;2.50;99.90;;;;;;5080260;28;20054;-76
2023/02/16 10:22:31;;;;;;;36.50;17.37;;;2.70;99.90;;;;;;5082732;28;20456;-76
2023/02/16 10:25:01;;;;;;;31.13;17.55;;;2.70;99.90;;;;;;5085190;28;20391;-76
2023/02/16 10:27:39;;;;;;;31.08;16.98;;;2.90;99.90;;;;;;5056715;28;20423;-77
2023/02/16 10:30:17;;;;;;;32.35;16.00;;;3.00;99.90;;;;;;5081527;28;20124;-76
2023/02/16 10:32:50;;;;;;;32.40;16.55;;;3.10;99.90;;;;;;5075925;28;20044;-76
2023/02/16 10:35:25;;;;;;;30.60;15.70;;;3.20;99.90;;;;;;5070606;28;20024;-76
2023/02/16 10:38:09;;;;;;;33.25;17.65;;;3.20;99.90;;;;;;5079112;28;20031;-76
2023/02/16 10:40:44;;;;;;;36.10;17.73;;;3.30;99.90;;;;;;5073360;28;20060;-76
2023/02/16 10:43:38;;;;;;;44.28;24.48;;;3.40;99.90;;;;;;5081272;28;20781;-76
2023/02/16 10:46:04;;;;;;;38.03;20.60;;;3.50;99.90;;;;;;5077995;28;20401;-76
2023/02/16 10:48:31;;;;;;;35.47;19.88;;;3.60;99.90;;;;;;5076938;28;20031;-76
2023/02/16 10:51:15;;;;;;;35.10;18.00;;;3.60;99.90;;;;;;5074962;28;20055;-76
2023/02/16 10:54:16;;;;;;;38.85;19.58;;;3.60;99.90;;;;;;5082568;28;20035;-76
2023/02/16 10:56:52;;;;;;;35.72;18.55;;;3.70;99.90;;;;;;5060039;28;20526;-76
2023/02/16 10:59:29;;;;;;;39.50;19.67;;;3.70;99.90;;;;;;5077562;28;20037;-76
2023/02/16 11:01:58;;;;;;;39.63;19.00;;;3.70;99.90;;;;;;5077747;28;20028;-76
2023/02/16 11:04:40;;;;;;;34.75;17.33;;;3.70;99.90;;;;;;5079058;28;20675;-76
2023/02/16 11:07:15;;;;;;;36.33;19.02;;;3.70;99.90;;;;;;5076307;28;20071;-76
2023/02/16 11:09:44;;;;;;;33.80;17.25;;;3.80;99.90;;;;;;5080514;28;20107;-76
2023/02/16 11:12:24;;;;;;;34.90;17.27;;;3.90;99.90;;;;;;5082522;28;20583;-75
2023/02/16 11:15:04;;;;;;;33.10;17.35;;;3.90;99.90;;;;;;5077493;28;20047;-76
2023/02/16 11:17:46;;;;;;;37.35;18.55;;;3.90;99.90;;;;;;5078402;28;20032;-76
2023/02/16 11:20:44;;;;;;;30.60;16.98;;;3.90;99.90;;;;;;5077104;28;20024;-75
2023/02/16 11:23:16;;;;;;;35.65;18.20;;;3.90;99.90;;;;;;5065200;28;20113;-75
2023/02/16 11:25:57;;;;;;;35.35;18.63;;;3.90;99.90;;;;;;5077158;28;20024;-76
2023/02/16 11:28:47;;;;;;;37.35;19.38;;;4.00;99.90;;;;;;5085717;28;20031;-75
2023/02/16 11:31:25;;;;;;;41.42;18.30;;;4.10;99.90;;;;;;5075897;28;20040;-75
2023/02/16 11:34:02;;;;;;;35.53;19.33;;;4.20;99.90;;;;;;5082278;28;20056;-75
2023/02/16 11:36:33;;;;;;;33.78;18.15;;;4.30;99.90;;;;;;5078628;28;20541;-75
2023/02/16 11:39:19;;;;;;;35.35;18.27;;;4.40;99.90;;;;;;5075855;28;20029;-76
2023/02/16 11:42:00;;;;;;;35.85;19.17;;;4.50;99.90;;;;;;5069470;28;20021;-75
2023/02/16 11:44:42;;;;;;;30.73;17.60;;;4.70;99.90;;;;;;5083910;28;20040;-75
2023/02/16 11:47:24;;;;;;;35.88;18.00;;;4.80;99.90;;;;;;5082522;28;20024;-75
2023/02/16 11:50:10;;;;;;;36.70;17.55;;;4.80;99.90;;;;;;5082631;28;20036;-75
2023/02/16 11:52:36;;;;;;;32.30;17.17;;;4.80;99.90;;;;;;5084520;28;20031;-76
2023/02/16 11:55:03;;;;;;;34.72;17.88;;;4.70;99.90;;;;;;5077244;28;20043;-75
2023/02/16 11:57:34;;;;;;;31.67;16.77;;;4.80;99.90;;;;;;5072975;28;20056;-75
2023/02/16 12:00:12;;;;;;;32.80;17.25;;;4.80;99.90;;;;;;5081026;28;20031;-75
2023/02/16 12:02:45;;;;;;;30.25;16.45;;;4.90;99.90;;;;;;5087207;28;20047;-76
2023/02/16 12:05:52;;;;;;;32.65;17.63;;;5.10;99.90;;;;;;5074382;28;20033;-75
2023/02/16 12:08:34;;;;;;;31.30;16.80;;;5.10;99.90;;;;;;5086102;28;20016;-76
2023/02/16 12:11:24;;;;;;;33.42;17.67;;;5.10;99.90;;;;;;5083742;28;20032;-76
2023/02/16 12:14:18;;;;;;;33.90;17.95;;;5.10;99.90;;;;;;5088054;28;20528;-76
2023/02/16 12:17:13;;;;;;;31.40;17.73;;;5.20;99.90;;;;;;5071629;28;20047;-75
2023/02/16 12:19:54;;;;;;;35.03;18.73;;;5.30;99.90;;;;;;5013091;28;20080;-76
2023/02/16 12:22:49;;;;;;;33.80;19.25;;;5.30;99.90;;;;;;5072399;28;20028;-76
2023/02/16 12:25:45;;;;;;;39.13;22.33;;;5.30;99.90;;;;;;5077255;28;20035;-76
2023/02/16 12:28:37;;;;;;;;;;;5.30;99.90;;;;;;5082751;28;20024;-75
2023/02/16 12:31:06;;;;;;;38.17;18.88;;;5.30;99.90;;;;;;5080998;28;20352;-75
2023/02/16 12:33:58;;;;;;;35.25;18.30;;;5.40;99.90;;;;;;5082179;28;20043;-75
2023/02/16 12:36:53;;;;;;;35.83;17.90;;;5.40;99.90;;;;;;5075900;28;20040;-75
2023/02/16 12:39:40;;;;;;;35.50;19.02;;;5.50;99.90;;;;;;5084192;28;20024;-75
2023/02/16 12:42:31;;;;;;;32.50;17.20;;;5.50;99.90;;;;;;5078172;28;20049;-75
2023/02/16 12:45:03;;;;;;;34.20;17.98;;;5.60;99.90;;;;;;5077577;28;20052;-75
2023/02/16 12:47:32;;;;;;;34.45;19.40;;;5.60;99.90;;;;;;5086863;28;20048;-75
2023/02/16 12:50:27;;;;;;;29.45;17.80;;;5.70;99.90;;;;;;5074575;28;20693;-75
2023/02/16 12:52:53;;;;;;;34.88;17.83;;;5.80;99.90;;;;;;5081425;28;20046;-75
2023/02/16 12:55:46;;;;;;;36.25;18.40;;;5.80;99.90;;;;;;5082206;28;20028;-75
2023/02/16 12:58:15;;;;;;;37.38;19.85;;;5.90;99.90;;;;;;5085521;28;20089;-75
2023/02/16 13:00:57;;;;;;;35.15;17.88;;;5.90;99.90;;;;;;5083857;28;20059;-75
2023/02/16 13:04:02;;;;;;;32.20;17.73;;;5.90;99.90;;;;;;5082953;28;20024;-75
2023/02/16 13:06:36;;;;;;;33.00;17.20;;;5.90;99.90;;;;;;5052779;28;20407;-75
2023/02/16 13:09:23;;;;;;;38.22;18.40;;;6.00;99.90;;;;;;5082081;28;20115;-75
2023/02/16 13:12:05;;;;;;;33.00;17.55;;;6.00;99.90;;;;;;5085325;28;20028;-76
2023/02/16 13:14:38;;;;;;;36.55;18.92;;;6.00;99.90;;;;;;5085472;28;20024;-75
2023/02/16 13:17:38;;;;;;;34.97;18.02;;;6.10;99.90;;;;;;5081636;28;20024;-75
2023/02/16 13:20:16;;;;;;;31.20;17.85;;;6.10;99.90;;;;;;5076335;28;20044;-75
2023/02/16 13:23:01;;;;;;;32.00;18.05;;;6.10;99.90;;;;;;5090746;28;20462;-75
2023/02/16 13:25:47;;;;;;;35.47;19.00;;;6.30;99.90;;;;;;5084012;28;20056;-76
2023/02/16 13:28:35;;;;;;;33.50;18.98;;;6.30;99.90;;;;;;5084398;28;20032;-76
2023/02/16 13:31:28;;;;;;;36.50;19.98;;;6.40;99.90;;;;;;5081757;28;20039;-76
2023/02/16 13:34:18;;;;;;;26.60;16.25;;;6.60;99.90;;;;;;5073285;28;20036;-76
2023/02/16 13:37:08;;;;;;;23.67;14.18;;;6.70;99.90;;;;;;5074793;28;20049;-77
2023/02/16 13:39:54;;;;;;;21.48;13.75;;;6.80;99.90;;;;;;5071155;28;20089;-77
2023/02/16 13:42:26;;;;;;;21.83;13.43;;;6.90;99.90;;;;;;5084139;28;20036;-77